Time;durP1;ratioP1;P1;durP2;ratioP2;P2;SDS_P1;SDS_P2;PMS_P1;PMS_P2;Temp;Humidity;BMP_temperature;BMP_pressure;BME280_temperature;BME280_humidity;BME280_pressure;Samples;Min_cycle;Max_cycle;Signal;HPM_P1;HPM_P2
2021/10/11 00:00:19;;;;;;;20.15;14.88;;;4.70;99.90;;;;;;5076354;28;20215;-65
2021/10/11 00:02:45;;;;;;;23.45;15.73;;;4.60;99.90;;;;;;5076068;28;20200;-65
2021/10/11 00:05:12;;;;;;;21.33;15.70;;;4.60;99.90;;;;;;5075822;28;20719;-65
2021/10/11 00:07:38;;;;;;;17.67;14.25;;;4.70;99.90;;;;;;5075875;28;20191;-66
2021/10/11 00:10:06;;;;;;;23.20;15.25;;;4.70;99.90;;;;;;5075761;28;20204;-65
2021/10/11 00:12:32;;;;;;;19.67;13.50;;;4.80;99.90;;;;;;5075782;28;20199;-66
2021/10/11 00:14:58;;;;;;;17.92;14.00;;;4.90;99.90;;;;;;5075929;28;20191;-66
2021/10/11 00:17:25;;;;;;;19.90;12.70;;;5.00;99.90;;;;;;5075287;28;20247;-65
2021/10/11 00:19:51;;;;;;;20.85;14.68;;;4.80;99.90;;;;;;5075687;28;20191;-66
2021/10/11 00:22:21;;;;;;;17.20;13.40;;;4.70;99.90;;;;;;5075642;28;20195;-66
2021/10/11 00:24:48;;;;;;;17.23;13.32;;;4.60;99.90;;;;;;5074256;28;20547;-65
2021/10/11 00:27:14;;;;;;;20.65;14.57;;;4.60;99.90;;;;;;5075701;28;20207;-65
2021/10/11 00:29:41;;;;;;;26.67;14.25;;;4.60;99.90;;;;;;5075496;28;20196;-66
2021/10/11 00:32:08;;;;;;;17.75;14.15;;;4.60;99.90;;;;;;5075436;28;20192;-66
2021/10/11 00:34:35;;;;;;;18.20;13.63;;;4.60;99.90;;;;;;5075386;28;20203;-65
2021/10/11 00:37:03;;;;;;;21.92;13.15;;;4.50;99.90;;;;;;5075595;28;20204;-66
2021/10/11 00:39:29;;;;;;;19.17;14.07;;;4.50;99.90;;;;;;5075332;28;20632;-65
2021/10/11 00:41:56;;;;;;;19.38;14.38;;;4.60;99.90;;;;;;5075455;28;20739;-66
2021/10/11 00:44:22;;;;;;;19.60;14.63;;;4.70;99.90;;;;;;5075220;28;20197;-66
2021/10/11 00:46:49;;;;;;;18.80;13.10;;;4.70;99.90;;;;;;5075112;28;20548;-65
2021/10/11 00:49:17;;;;;;;18.23;15.00;;;4.80;99.90;;;;;;5075040;28;20203;-66
2021/10/11 00:51:43;;;;;;;19.15;13.95;;;4.80;99.90;;;;;;5074134;28;20211;-66
2021/10/11 00:54:10;;;;;;;18.83;13.48;;;4.80;99.90;;;;;;5073826;28;20200;-65
2021/10/11 00:56:36;;;;;;;18.88;14.27;;;4.70;99.90;;;;;;5074792;28;20551;-65
2021/10/11 00:59:03;;;;;;;19.23;14.32;;;4.70;99.90;;;;;;5074951;28;20223;-66
2021/10/11 01:01:31;;;;;;;21.80;13.68;;;4.70;99.90;;;;;;5075294;28;20206;-65
2021/10/11 01:03:59;;;;;;;16.63;13.07;;;4.70;99.90;;;;;;5074677;28;20254;-66
2021/10/11 01:06:26;;;;;;;17.70;14.00;;;4.70;99.90;;;;;;5074463;28;20269;-66
2021/10/11 01:08:53;;;;;;;16.25;13.75;;;4.70;99.90;;;;;;5074701;28;20192;-66
2021/10/11 01:11:20;;;;;;;21.67;13.63;;;4.70;99.90;;;;;;5074419;28;20222;-66
2021/10/11 01:13:46;;;;;;;15.95;13.40;;;4.70;99.90;;;;;;5074501;28;20199;-66
2021/10/11 01:16:12;;;;;;;18.13;14.02;;;4.70;99.90;;;;;;5074420;28;20219;-66
2021/10/11 01:18:40;;;;;;;31.45;19.60;;;4.70;99.90;;;;;;5074100;28;20698;-65
2021/10/11 01:21:06;;;;;;;28.90;19.40;;;4.80;99.90;;;;;;5074250;28;20207;-65
2021/10/11 01:23:33;;;;;;;26.33;17.75;;;4.70;99.90;;;;;;5074241;28;20320;-65
2021/10/11 01:25:59;;;;;;;26.15;17.63;;;4.70;99.90;;;;;;5074082;28;20192;-66
2021/10/11 01:28:26;;;;;;;38.20;28.08;;;4.60;99.90;;;;;;5072887;28;20203;-66
2021/10/11 01:30:53;;;;;;;21.85;15.90;;;4.50;99.90;;;;;;5073958;28;20207;-65
2021/10/11 01:33:19;;;;;;;27.67;14.73;;;4.50;99.90;;;;;;5074108;28;20215;-65
2021/10/11 01:35:45;;;;;;;17.80;13.98;;;4.50;99.90;;;;;;5074072;28;20196;-66
2021/10/11 01:38:12;;;;;;;17.50;14.15;;;4.30;99.90;;;;;;5073743;28;20216;-66
2021/10/11 01:40:40;;;;;;;20.58;14.27;;;4.30;99.90;;;;;;5073799;28;20191;-65
2021/10/11 01:43:07;;;;;;;17.63;13.38;;;4.20;99.90;;;;;;5073865;28;20192;-66
2021/10/11 01:45:37;;;;;;;19.73;13.45;;;4.10;99.90;;;;;;5073771;28;20184;-65
2021/10/11 01:48:04;;;;;;;19.02;13.52;;;3.90;99.90;;;;;;5073833;28;20208;-66
2021/10/11 01:50:32;;;;;;;19.95;13.07;;;3.90;99.90;;;;;;5073969;28;20204;-66
2021/10/11 01:52:58;;;;;;;15.77;13.20;;;3.60;99.90;;;;;;5071841;28;20204;-65
2021/10/11 01:55:25;;;;;;;22.02;14.15;;;3.60;99.90;;;;;;5073729;28;20656;-65
2021/10/11 01:57:53;;;;;;;20.02;14.38;;;3.60;99.90;;;;;;5073857;28;20223;-65
2021/10/11 02:00:19;;;;;;;16.30;13.55;;;3.70;99.90;;;;;;5073650;28;20557;-65
2021/10/11 02:02:46;;;;;;;18.23;13.18;;;3.80;99.90;;;;;;5073755;28;20675;-66
2021/10/11 02:05:12;;;;;;;22.00;14.82;;;3.80;99.90;;;;;;5074004;28;20254;-65
2021/10/11 02:07:39;;;;;;;16.55;13.13;;;3.80;99.90;;;;;;5073491;28;20192;-66
2021/10/11 02:10:06;;;;;;;16.30;13.48;;;3.80;99.90;;;;;;5073617;28;20647;-65
2021/10/11 02:12:33;;;;;;;25.33;13.95;;;3.80;99.90;;;;;;5073500;28;20188;-66
2021/10/11 02:15:01;;;;;;;15.32;13.70;;;3.70;99.90;;;;;;5073455;28;20199;-66
2021/10/11 02:17:27;;;;;;;18.55;13.93;;;3.70;99.90;;;;;;5073247;28;20220;-65
2021/10/11 02:19:54;;;;;;;17.63;14.00;;;3.60;99.90;;;;;;5072824;28;20242;-66
2021/10/11 02:22:20;;;;;;;18.33;14.23;;;3.60;99.90;;;;;;5073545;28;20257;-66
2021/10/11 02:24:46;;;;;;;19.73;13.27;;;3.60;99.90;;;;;;5073695;28;20200;-66
2021/10/11 02:27:13;;;;;;;20.38;14.55;;;3.50;99.90;;;;;;5073760;28;20207;-65
2021/10/11 02:29:39;;;;;;;19.85;14.10;;;3.60;99.90;;;;;;5073407;28;20202;-65
2021/10/11 02:32:06;;;;;;;20.42;14.38;;;3.50;99.90;;;;;;5073535;28;20211;-67
2021/10/11 02:34:33;;;;;;;21.08;13.98;;;3.40;99.90;;;;;;5073170;28;20200;-65
2021/10/11 02:36:59;;;;;;;18.80;14.23;;;3.40;99.90;;;;;;5073784;28;20265;-66
2021/10/11 02:39:29;;;;;;;18.60;14.07;;;3.40;99.90;;;;;;5072988;28;20223;-65
2021/10/11 02:41:55;;;;;;;23.67;13.85;;;3.50;99.90;;;;;;5073178;28;20192;-65
2021/10/11 02:44:21;;;;;;;19.55;14.60;;;3.60;99.90;;;;;;5073432;28;20188;-66
2021/10/11 02:46:48;;;;;;;22.27;14.40;;;3.60;99.90;;;;;;5073283;28;20192;-65
2021/10/11 02:49:14;;;;;;;19.63;13.05;;;3.60;99.90;;;;;;5072909;28;20200;-65
2021/10/11 02:51:40;;;;;;;19.30;14.27;;;3.70;99.90;;;;;;5073102;28;20195;-65
2021/10/11 02:54:07;;;;;;;21.83;15.00;;;3.60;99.90;;;;;;5073117;28;20188;-66
2021/10/11 02:56:33;;;;;;;19.42;13.48;;;3.60;99.90;;;;;;5073319;28;20196;-65
2021/10/11 02:58:59;;;;;;;17.08;12.52;;;3.60;99.90;;;;;;5073195;28;20671;-66
2021/10/11 03:01:26;;;;;;;19.05;13.65;;;3.50;99.90;;;;;;5073000;28;20210;-65
2021/10/11 03:03:52;;;;;;;16.52;13.25;;;3.50;99.90;;;;;;5069254;28;20558;-66
2021/10/11 03:06:19;;;;;;;16.65;14.43;;;3.50;99.90;;;;;;5061905;28;20193;-66
2021/10/11 03:08:45;;;;;;;21.27;14.25;;;3.50;99.90;;;;;;5072627;28;20234;-66
2021/10/11 03:11:12;;;;;;;20.50;14.88;;;3.50;99.90;;;;;;5072569;28;20192;-66
2021/10/11 03:13:38;;;;;;;23.60;15.32;;;3.50;99.90;;;;;;5073059;28;20188;-66
2021/10/11 03:16:04;;;;;;;18.73;13.30;;;3.40;99.90;;;;;;5073045;28;20226;-65
2021/10/11 03:18:31;;;;;;;22.27;15.77;;;3.20;99.90;;;;;;5071806;28;20236;-65
2021/10/11 03:20:57;;;;;;;17.52;13.07;;;3.20;99.90;;;;;;5072890;28;20192;-65
2021/10/11 03:23:25;;;;;;;23.08;15.77;;;3.20;99.90;;;;;;5072938;28;20204;-65
2021/10/11 03:25:51;;;;;;;19.80;14.90;;;3.20;99.90;;;;;;5071354;28;20206;-65
2021/10/11 03:28:17;;;;;;;18.40;14.95;;;3.40;99.90;;;;;;5072995;28;20650;-66
2021/10/11 03:30:44;;;;;;;20.95;15.38;;;3.30;99.90;;;;;;5073704;28;20186;-66
2021/10/11 03:33:11;;;;;;;18.35;14.27;;;3.30;99.90;;;;;;5076186;28;20196;-65
2021/10/11 03:35:38;;;;;;;25.65;15.57;;;3.20;99.90;;;;;;5076448;28;20602;-66
2021/10/11 03:38:05;;;;;;;22.30;15.57;;;3.20;99.90;;;;;;5076080;28;20203;-65
2021/10/11 03:40:32;;;;;;;24.52;17.20;;;3.20;99.90;;;;;;5076204;28;20196;-65
2021/10/11 03:42:58;;;;;;;31.45;15.93;;;3.30;99.90;;;;;;5076215;28;20195;-66
2021/10/11 03:45:25;;;;;;;22.75;17.13;;;3.40;99.90;;;;;;5076336;28;20195;-65
2021/10/11 03:47:51;;;;;;;26.08;14.85;;;3.50;99.90;;;;;;5076331;28;20215;-65
2021/10/11 03:50:17;;;;;;;23.67;17.00;;;3.50;99.90;;;;;;5076349;28;20613;-66
2021/10/11 03:52:44;;;;;;;20.33;15.32;;;3.40;99.90;;;;;;5076341;28;20241;-65
2021/10/11 03:55:10;;;;;;;25.15;16.27;;;3.30;99.90;;;;;;5075951;28;20585;-65
2021/10/11 03:57:37;;;;;;;23.23;16.23;;;3.20;99.90;;;;;;5076405;28;20199;-65
2021/10/11 04:00:04;;;;;;;22.38;14.93;;;3.20;99.90;;;;;;5075775;28;20690;-66
2021/10/11 04:02:30;;;;;;;22.02;16.23;;;3.20;99.90;;;;;;5075985;28;20266;-65
2021/10/11 04:04:56;;;;;;;22.52;16.10;;;3.20;99.90;;;;;;5075580;28;20192;-66
2021/10/11 04:07:23;;;;;;;21.38;14.20;;;3.30;99.90;;;;;;5076317;28;20230;-66
2021/10/11 04:09:50;;;;;;;23.05;15.35;;;3.30;99.90;;;;;;5076833;28;20211;-66
2021/10/11 04:12:21;;;;;;;20.92;14.07;;;3.30;99.90;;;;;;5075975;28;20207;-65
2021/10/11 04:14:48;;;;;;;23.77;15.82;;;3.30;99.90;;;;;;5075744;28;20214;-65
2021/10/11 04:17:15;;;;;;;19.70;15.40;;;3.30;99.90;;;;;;5075603;28;20239;-66
2021/10/11 04:19:41;;;;;;;22.08;15.27;;;3.30;99.90;;;;;;5075762;28;20671;-66
2021/10/11 04:22:08;;;;;;;20.75;15.52;;;3.40;99.90;;;;;;5075493;28;20230;-66
2021/10/11 04:24:34;;;;;;;23.95;15.25;;;3.40;99.90;;;;;;5075562;28;20196;-66
2021/10/11 04:27:00;;;;;;;16.30;13.35;;;3.30;99.90;;;;;;5075438;28;20222;-66
2021/10/11 04:29:26;;;;;;;19.80;14.45;;;3.30;99.90;;;;;;5075426;28;20211;-66
2021/10/11 04:31:53;;;;;;;23.27;15.80;;;3.30;99.90;;;;;;5075510;28;20199;-66
2021/10/11 04:34:20;;;;;;;19.08;13.80;;;3.20;99.90;;;;;;5075421;28;20196;-66
2021/10/11 04:36:46;;;;;;;19.70;13.95;;;3.30;99.90;;;;;;5075499;28;20285;-66
2021/10/11 04:39:18;;;;;;;21.30;14.18;;;3.20;99.90;;;;;;5075143;28;20203;-66
2021/10/11 04:41:45;;;;;;;18.23;12.90;;;3.20;99.90;;;;;;5074713;28;20211;-66
2021/10/11 04:44:11;;;;;;;24.23;15.15;;;3.10;99.90;;;;;;5075273;28;20196;-66
2021/10/11 04:46:37;;;;;;;17.48;12.85;;;3.10;99.90;;;;;;5074864;28;20532;-66
2021/10/11 04:49:04;;;;;;;21.50;15.80;;;3.10;99.90;;;;;;5075011;28;20199;-66
2021/10/11 04:51:30;;;;;;;19.25;13.85;;;3.10;99.90;;;;;;5074916;28;20198;-64
2021/10/11 04:53:57;;;;;;;17.60;13.40;;;3.00;99.90;;;;;;5074836;28;20192;-64
2021/10/11 04:56:23;;;;;;;21.45;14.95;;;3.00;99.90;;;;;;5074689;28;20198;-65
2021/10/11 04:58:51;;;;;;;19.23;13.80;;;2.80;99.90;;;;;;5074977;28;20252;-65
2021/10/11 05:01:17;;;;;;;19.90;14.13;;;2.90;99.90;;;;;;5074956;28;20188;-65
2021/10/11 05:03:44;;;;;;;23.88;14.48;;;3.00;99.90;;;;;;5074934;28;20208;-65
2021/10/11 05:06:10;;;;;;;23.25;15.52;;;3.00;99.90;;;;;;5074559;28;20187;-65
2021/10/11 05:08:36;;;;;;;28.40;14.80;;;3.10;99.90;;;;;;5074524;28;20200;-65
2021/10/11 05:11:05;;;;;;;18.52;13.75;;;3.20;99.90;;;;;;5074356;28;20192;-65
2021/10/11 05:13:33;;;;;;;20.08;14.15;;;3.20;99.90;;;;;;5074647;28;20652;-65
2021/10/11 05:15:59;;;;;;;18.48;13.57;;;3.20;99.90;;;;;;5074388;28;20563;-65
2021/10/11 05:18:26;;;;;;;18.67;13.55;;;3.20;99.90;;;;;;5074096;28;20228;-65
2021/10/11 05:20:52;;;;;;;21.13;13.68;;;3.10;99.90;;;;;;5074357;28;20751;-66
2021/10/11 05:23:19;;;;;;;20.70;13.50;;;3.10;99.90;;;;;;5074241;28;20196;-66
2021/10/11 05:25:45;;;;;;;25.60;14.70;;;3.10;99.90;;;;;;5074157;28;20200;-66
2021/10/11 05:28:13;;;;;;;19.67;13.10;;;3.10;99.90;;;;;;5074016;28;20198;-67
2021/10/11 05:30:40;;;;;;;17.35;14.07;;;3.00;99.90;;;;;;5074144;28;20235;-67
2021/10/11 05:33:09;;;;;;;21.90;15.55;;;2.90;99.90;;;;;;5074267;28;20726;-65
2021/10/11 05:35:37;;;;;;;21.38;14.73;;;2.90;99.90;;;;;;5073950;28;20208;-65
2021/10/11 05:38:05;;;;;;;18.52;13.48;;;2.80;99.90;;;;;;5074683;28;20218;-65
2021/10/11 05:40:32;;;;;;;18.55;14.10;;;2.80;99.90;;;;;;5073502;28;20242;-65
2021/10/11 05:42:58;;;;;;;20.88;14.75;;;2.90;99.90;;;;;;5073735;28;20197;-65
2021/10/11 05:45:25;;;;;;;22.05;14.77;;;2.90;99.90;;;;;;5070517;28;20640;-66
2021/10/11 05:47:51;;;;;;;20.35;13.95;;;3.00;99.90;;;;;;5059505;28;20232;-66
2021/10/11 05:50:17;;;;;;;22.15;15.73;;;3.00;99.90;;;;;;5073607;28;20636;-66
2021/10/11 05:52:43;;;;;;;17.50;14.05;;;2.90;99.90;;;;;;5068734;28;20193;-66
2021/10/11 05:55:10;;;;;;;22.60;15.18;;;2.90;99.90;;;;;;5053310;28;20201;-66
2021/10/11 05:57:38;;;;;;;16.63;13.98;;;2.90;99.90;;;;;;5053695;28;20223;-66
2021/10/11 06:00:05;;;;;;;18.40;14.90;;;2.90;99.90;;;;;;5053797;28;20259;-66
2021/10/11 06:02:32;;;;;;;20.20;15.23;;;2.80;99.90;;;;;;5053632;28;20199;-66
2021/10/11 06:04:58;;;;;;;25.73;14.35;;;2.90;99.90;;;;;;5053816;28;20185;-66
2021/10/11 06:07:25;;;;;;;18.30;14.10;;;2.90;99.90;;;;;;5054086;28;20389;-66
2021/10/11 06:09:51;;;;;;;18.52;14.48;;;3.00;99.90;;;;;;5053614;28;20201;-66
2021/10/11 06:12:17;;;;;;;25.60;15.23;;;2.90;99.90;;;;;;5053577;28;20193;-66
2021/10/11 06:14:44;;;;;;;22.02;15.15;;;2.80;99.90;;;;;;5053637;28;20215;-66
2021/10/11 06:17:10;;;;;;;22.02;15.15;;;2.80;99.90;;;;;;5053357;28;20311;-66
2021/10/11 06:19:36;;;;;;;21.45;15.00;;;2.90;99.90;;;;;;5052265;28;20236;-66
2021/10/11 06:22:03;;;;;;;22.33;16.60;;;2.90;99.90;;;;;;5053543;28;20200;-66
2021/10/11 06:24:29;;;;;;;22.10;16.75;;;3.00;99.90;;;;;;5053301;28;20188;-66
2021/10/11 06:26:58;;;;;;;23.58;14.90;;;2.90;99.90;;;;;;5053656;28;20206;-66
2021/10/11 06:29:24;;;;;;;23.23;15.57;;;2.90;99.90;;;;;;5053715;28;20230;-66
2021/10/11 06:31:51;;;;;;;26.08;16.10;;;2.80;99.90;;;;;;5053140;28;20215;-66
2021/10/11 06:34:17;;;;;;;20.83;16.58;;;2.80;99.90;;;;;;5053700;28;20209;-66
2021/10/11 06:36:43;;;;;;;17.95;14.93;;;2.80;99.90;;;;;;5053568;28;20200;-65
2021/10/11 06:39:10;;;;;;;21.33;15.05;;;3.00;99.90;;;;;;5053358;28;20560;-65
2021/10/11 06:41:36;;;;;;;19.55;14.90;;;2.90;99.90;;;;;;5054209;28;20207;-66
2021/10/11 06:44:04;;;;;;;24.90;15.57;;;2.90;99.90;;;;;;5053533;28;20196;-65
2021/10/11 06:46:30;;;;;;;25.17;16.27;;;2.90;99.90;;;;;;5053548;28;20201;-66
2021/10/11 06:48:56;;;;;;;27.60;15.75;;;2.90;99.90;;;;;;5052844;28;20243;-67
2021/10/11 06:51:23;;;;;;;19.95;15.85;;;3.00;99.90;;;;;;5053053;28;20644;-66
2021/10/11 06:53:49;;;;;;;29.83;15.32;;;3.20;99.90;;;;;;5053070;28;20553;-66
2021/10/11 06:56:15;;;;;;;21.38;16.80;;;3.30;99.90;;;;;;5053427;28;20265;-66
2021/10/11 06:58:42;;;;;;;24.35;15.90;;;3.40;99.90;;;;;;5053175;28;20565;-66
2021/10/11 07:01:08;;;;;;;24.88;16.25;;;3.50;99.90;;;;;;5053121;28;20208;-65
2021/10/11 07:03:37;;;;;;;21.98;15.98;;;3.50;99.90;;;;;;5052525;28;20637;-65
2021/10/11 07:06:06;;;;;;;23.45;15.05;;;3.50;99.90;;;;;;5073951;28;20207;-65
2021/10/11 07:08:34;;;;;;;22.17;14.75;;;3.40;99.90;;;;;;5076554;28;20618;-65
2021/10/11 07:11:00;;;;;;;19.27;16.48;;;3.60;99.90;;;;;;5076533;28;20204;-65
2021/10/11 07:13:27;;;;;;;21.77;15.60;;;3.80;99.90;;;;;;5076511;28;20192;-65
2021/10/11 07:15:53;;;;;;;19.90;14.32;;;4.00;99.90;;;;;;5076293;28;20200;-65
2021/10/11 07:18:21;;;;;;;20.20;15.13;;;3.80;99.90;;;;;;5075950;28;20628;-65
2021/10/11 07:20:47;;;;;;;23.65;16.75;;;3.90;99.90;;;;;;5062692;28;20220;-65
2021/10/11 07:23:15;;;;;;;20.75;15.65;;;4.00;99.90;;;;;;5062169;28;20565;-66
2021/10/11 07:25:42;;;;;;;20.80;16.45;;;4.20;99.90;;;;;;5074675;28;20200;-66
2021/10/11 07:28:09;;;;;;;20.70;15.07;;;4.10;99.90;;;;;;5076142;28;20203;-67
2021/10/11 07:30:35;;;;;;;19.73;15.57;;;4.00;99.90;;;;;;5076531;28;20717;-67
2021/10/11 07:33:02;;;;;;;42.22;18.50;;;4.00;99.90;;;;;;5076077;28;20279;-64
2021/10/11 07:35:29;;;;;;;22.85;16.08;;;4.00;99.90;;;;;;5076041;28;20193;-66
2021/10/11 07:37:55;;;;;;;26.05;16.85;;;4.20;99.90;;;;;;5076253;28;20573;-65
2021/10/11 07:40:21;;;;;;;24.35;16.90;;;4.30;99.90;;;;;;5076131;28;20224;-66
2021/10/11 07:42:48;;;;;;;20.40;17.25;;;4.40;99.90;;;;;;5076613;28;20218;-66
2021/10/11 07:45:14;;;;;;;19.73;16.33;;;4.40;99.90;;;;;;5076315;28;20563;-65
2021/10/11 07:47:41;;;;;;;26.73;19.42;;;4.70;99.90;;;;;;5076278;28;20675;-66
2021/10/11 07:50:07;;;;;;;22.70;17.70;;;4.40;99.90;;;;;;5075133;28;20569;-65
2021/10/11 07:52:34;;;;;;;22.48;18.80;;;4.50;99.90;;;;;;5074877;28;20204;-66
2021/10/11 07:55:00;;;;;;;25.58;18.23;;;4.70;99.90;;;;;;5076315;28;20643;-66
2021/10/11 07:57:29;;;;;;;22.63;18.20;;;4.80;99.90;;;;;;5076670;28;20200;-66
2021/10/11 07:59:55;;;;;;;23.05;18.60;;;5.00;99.90;;;;;;5076408;28;20230;-66
2021/10/11 08:02:21;;;;;;;25.27;17.73;;;5.20;99.90;;;;;;5076263;28;20242;-66
2021/10/11 08:04:47;;;;;;;23.30;17.23;;;5.40;99.90;;;;;;5076059;28;20299;-66
2021/10/11 08:07:14;;;;;;;22.30;18.20;;;5.50;99.90;;;;;;5075807;28;20204;-66
2021/10/11 08:09:40;;;;;;;25.50;19.42;;;5.70;99.90;;;;;;5075836;28;20192;-66
2021/10/11 08:12:08;;;;;;;26.63;17.27;;;5.90;99.90;;;;;;5076079;28;20195;-65
2021/10/11 08:14:35;;;;;;;23.55;18.05;;;6.10;99.90;;;;;;5075789;28;20586;-66
2021/10/11 08:17:02;;;;;;;18.63;15.68;;;6.10;99.90;;;;;;5074833;28;20220;-66
2021/10/11 08:19:28;;;;;;;23.88;18.20;;;6.20;99.90;;;;;;5075788;28;20228;-66
2021/10/11 08:21:55;;;;;;;20.75;16.38;;;6.30;99.90;;;;;;5075810;28;20200;-66
2021/10/11 08:24:21;;;;;;;19.65;15.65;;;6.40;99.90;;;;;;5075674;28;20192;-65
2021/10/11 08:26:47;;;;;;;21.45;16.80;;;6.40;99.90;;;;;;5076044;28;20200;-66
2021/10/11 08:29:14;;;;;;;23.77;18.52;;;6.60;99.90;;;;;;5074624;28;20203;-66
2021/10/11 08:31:41;;;;;;;20.45;16.55;;;6.70;99.90;;;;;;5075658;28;20195;-66
2021/10/11 08:34:07;;;;;;;22.27;17.98;;;6.80;99.90;;;;;;5075411;28;20306;-66
2021/10/11 08:36:33;;;;;;;23.45;17.50;;;7.00;99.90;;;;;;5075331;28;20560;-66
2021/10/11 08:38:59;;;;;;;23.73;17.90;;;7.20;99.90;;;;;;5075418;28;20283;-65
2021/10/11 08:41:26;;;;;;;21.80;17.52;;;7.10;99.90;;;;;;5075323;28;20196;-65
2021/10/11 08:43:52;;;;;;;21.50;17.15;;;7.20;99.90;;;;;;5075465;28;20204;-66
2021/10/11 08:46:18;;;;;;;23.05;16.77;;;7.40;99.90;;;;;;5075871;28;20669;-67
2021/10/11 08:48:45;;;;;;;18.60;15.85;;;7.60;99.90;;;;;;5074049;28;20224;-66
2021/10/11 08:51:11;;;;;;;23.30;16.88;;;7.60;99.90;;;;;;5075835;28;20666;-66
2021/10/11 08:53:38;;;;;;;21.65;17.25;;;7.60;99.90;;;;;;5076593;28;20249;-66
2021/10/11 08:56:04;;;;;;;20.42;16.63;;;7.30;99.90;;;;;;5076294;28;20218;-65
2021/10/11 08:58:49;;;;;;;19.63;16.23;;;7.30;99.90;;;;;;5076166;28;20204;-66
2021/10/11 09:01:23;;;;;;;19.40;15.95;;;7.40;99.90;;;;;;5076371;28;20211;-65
2021/10/11 09:03:49;;;;;;;20.65;15.30;;;7.60;99.90;;;;;;5076530;28;20279;-65
2021/10/11 09:06:16;;;;;;;25.25;15.27;;;7.50;99.90;;;;;;5076365;28;20286;-65
2021/10/11 09:08:42;;;;;;;18.10;15.63;;;7.50;99.90;;;;;;5076117;28;20207;-66
2021/10/11 09:11:11;;;;;;;20.80;15.93;;;7.50;99.90;;;;;;5076258;28;20212;-65
2021/10/11 09:13:51;;;;;;;20.02;15.82;;;7.60;99.90;;;;;;5076109;28;20211;-65
2021/10/11 09:16:29;;;;;;;18.70;15.40;;;7.70;99.90;;;;;;5075403;28;20184;-65
2021/10/11 09:19:10;;;;;;;19.30;15.23;;;7.80;99.90;;;;;;5074428;28;20214;-65
2021/10/11 09:21:37;;;;;;;18.83;14.55;;;8.30;99.90;;;;;;5074558;28;20176;-65
2021/10/11 09:24:09;;;;;;;18.73;14.60;;;8.40;99.90;;;;;;5074394;28;20196;-65
2021/10/11 09:26:55;;;;;;;22.85;15.60;;;8.40;99.90;;;;;;5073906;28;20219;-65
2021/10/11 09:29:33;;;;;;;21.27;14.82;;;8.50;99.90;;;;;;5073045;28;20214;-66
2021/10/11 09:32:09;;;;;;;19.27;15.30;;;8.90;99.90;;;;;;5074721;28;20230;-66
2021/10/11 09:34:38;;;;;;;19.80;15.88;;;9.00;99.90;;;;;;5074211;28;20578;-66
2021/10/11 09:37:17;;;;;;;15.70;14.02;;;9.00;99.90;;;;;;5074035;28;20204;-66
2021/10/11 09:39:43;;;;;;;19.70;15.48;;;9.40;99.90;;;;;;5074350;28;20231;-67
2021/10/11 09:42:14;;;;;;;18.75;15.45;;;9.60;99.90;;;;;;5073964;28;20200;-66
2021/10/11 09:44:54;;;;;;;16.60;14.60;;;9.80;99.90;;;;;;5073669;28;20198;-66
2021/10/11 09:47:36;;;;;;;14.77;13.27;;;10.30;99.90;;;;;;5074013;28;20643;-67
2021/10/11 09:50:08;;;;;;;23.02;13.55;;;10.40;99.90;;;;;;5073728;28;20214;-66
2021/10/11 09:52:40;;;;;;;20.70;15.55;;;10.60;99.90;;;;;;5073931;28;20185;-67
2021/10/11 09:55:08;;;;;;;19.17;14.32;;;10.50;99.90;;;;;;5073917;28;20214;-66
2021/10/11 09:57:34;;;;;;;21.83;16.60;;;10.40;99.90;;;;;;5074434;28;20204;-66
2021/10/11 10:00:07;;;;;;;19.35;16.08;;;10.40;99.90;;;;;;5073615;28;20216;-66
2021/10/11 10:02:36;;;;;;;20.45;15.27;;;10.20;99.90;;;;;;5073844;28;20191;-66
2021/10/11 10:05:10;;;;;;;22.42;17.08;;;10.30;99.90;;;;;;5073859;28;20208;-66
2021/10/11 10:07:42;;;;;;;18.92;15.05;;;10.40;99.90;;;;;;5073770;28;20202;-66
2021/10/11 10:10:09;;;;;;;24.50;17.48;;;10.70;99.90;;;;;;5073669;28;20594;-66
2021/10/11 10:12:47;;;;;;;21.13;16.67;;;10.80;99.90;;;;;;5073751;28;20203;-66
2021/10/11 10:15:25;;;;;;;21.33;17.23;;;10.70;99.90;;;;;;5073615;28;20222;-66
2021/10/11 10:18:06;;;;;;;20.77;15.85;;;10.70;99.90;;;;;;5074273;28;20293;-71
2021/10/11 10:20:34;;;;;;;21.80;15.60;;;10.80;99.90;;;;;;5074506;28;20231;-66
2021/10/11 10:23:02;;;;;;;19.27;15.57;;;11.00;99.90;;;;;;5073154;28;20636;-66
2021/10/11 10:25:28;;;;;;;18.67;15.25;;;11.20;99.90;;;;;;5073614;28;20229;-66
2021/10/11 10:28:11;;;;;;;23.20;16.60;;;11.20;99.90;;;;;;5073569;28;20546;-66
2021/10/11 10:30:39;;;;;;;20.27;15.65;;;11.30;99.90;;;;;;5073464;28;20203;-66
2021/10/11 10:33:07;;;;;;;22.45;15.63;;;11.20;99.90;;;;;;5073634;28;20203;-66
2021/10/11 10:35:39;;;;;;;17.80;15.13;;;11.10;99.90;;;;;;5073297;28;20199;-66
2021/10/11 10:38:21;;;;;;;18.88;15.43;;;11.30;99.90;;;;;;5073531;28;20375;-66
2021/10/11 10:40:48;;;;;;;18.10;15.98;;;11.10;99.90;;;;;;5080710;28;20215;-68
2021/10/11 10:43:17;;;;;;;20.25;15.88;;;11.10;99.90;;;;;;5080277;28;20279;-66
2021/10/11 10:45:47;;;;;;;21.30;15.80;;;11.40;99.90;;;;;;5080017;28;20207;-66
2021/10/11 10:48:25;;;;;;;19.58;16.00;;;11.40;99.90;;;;;;5080669;28;20226;-66
2021/10/11 10:51:02;;;;;;;20.30;15.32;;;11.50;99.90;;;;;;5080252;28;20563;-66
2021/10/11 10:53:30;;;;;;;20.80;16.48;;;11.40;99.90;;;;;;5080069;28;20182;-66
2021/10/11 10:55:57;;;;;;;23.85;16.45;;;11.20;99.90;;;;;;5079525;28;20199;-66
2021/10/11 10:58:24;;;;;;;19.23;15.32;;;11.30;99.90;;;;;;5078156;28;20655;-66
2021/10/11 11:00:50;;;;;;;21.05;15.38;;;11.40;99.90;;;;;;5079616;28;20683;-66
2021/10/11 11:03:17;;;;;;;21.25;16.60;;;11.50;99.90;;;;;;5079878;28;20583;-66
2021/10/11 11:05:47;;;;;;;25.80;17.58;;;11.40;99.90;;;;;;5080065;28;20289;-65
2021/10/11 11:08:18;;;;;;;18.70;16.13;;;11.50;99.90;;;;;;5079773;28;20192;-65
2021/10/11 11:10:44;;;;;;;19.58;16.48;;;11.50;99.90;;;;;;5079714;28;20184;-65
2021/10/11 11:13:16;;;;;;;22.95;17.52;;;11.50;99.90;;;;;;5079915;28;20195;-65
2021/10/11 11:15:48;;;;;;;20.63;16.17;;;11.60;99.90;;;;;;5079870;28;20191;-65
2021/10/11 11:18:20;;;;;;;23.38;16.73;;;11.70;99.90;;;;;;5079382;28;20224;-65
2021/10/11 11:20:47;;;;;;;24.48;18.17;;;11.70;99.90;;;;;;5079487;28;20574;-65
2021/10/11 11:23:19;;;;;;;29.33;22.92;;;11.60;99.90;;;;;;5079853;28;20200;-66
2021/10/11 11:25:49;;;;;;;25.52;19.00;;;11.60;99.90;;;;;;5079544;28;20628;-65
2021/10/11 11:28:23;;;;;;;21.25;16.95;;;11.70;99.90;;;;;;5067509;28;20231;-65
2021/10/11 11:30:52;;;;;;;23.27;16.52;;;11.90;99.90;;;;;;5077682;28;20617;-65
2021/10/11 11:33:22;;;;;;;21.67;18.30;;;11.90;99.90;;;;;;5077529;28;20564;-65
2021/10/11 11:35:51;;;;;;;23.15;15.82;;;11.90;99.90;;;;;;5071681;28;20212;-65
2021/10/11 11:38:20;;;;;;;23.70;17.50;;;11.90;99.90;;;;;;5072142;28;20269;-65
2021/10/11 11:40:54;;;;;;;24.60;17.13;;;12.10;99.90;;;;;;5064724;28;20196;-66
2021/10/11 11:43:21;;;;;;;24.35;16.67;;;12.10;99.90;;;;;;5079033;28;20208;-65
2021/10/11 11:45:54;;;;;;;21.58;16.13;;;12.10;99.90;;;;;;5077630;28;20204;-66
2021/10/11 11:48:49;;;;;;;24.15;17.67;;;12.20;99.90;;;;;;5078968;28;20575;-65
2021/10/11 11:51:19;;;;;;;21.65;17.67;;;12.20;99.90;;;;;;5057406;28;20208;-65
2021/10/11 11:53:48;;;;;;;22.20;16.35;;;12.20;99.90;;;;;;5075615;28;20644;-65
2021/10/11 11:56:16;;;;;;;21.85;16.42;;;12.30;99.90;;;;;;5075607;28;20215;-65
2021/10/11 11:58:43;;;;;;;19.65;16.33;;;12.40;99.90;;;;;;5075573;28;20198;-65
2021/10/11 12:01:27;;;;;;;22.70;16.67;;;12.40;99.90;;;;;;5076437;28;20228;-66
2021/10/11 12:03:58;;;;;;;23.65;16.90;;;12.30;99.90;;;;;;5076639;28;20226;-65
2021/10/11 12:06:29;;;;;;;22.60;15.50;;;12.40;99.90;;;;;;5076445;28;20643;-65
2021/10/11 12:08:56;;;;;;;27.60;17.08;;;12.30;99.90;;;;;;5075823;28;20609;-65
2021/10/11 12:11:23;;;;;;;19.98;17.33;;;12.30;99.90;;;;;;5076045;28;20326;-66
2021/10/11 12:13:57;;;;;;;22.52;17.42;;;12.40;99.90;;;;;;5075780;28;20195;-65
2021/10/11 12:16:25;;;;;;;24.67;18.25;;;12.30;99.90;;;;;;5075484;28;20184;-65
2021/10/11 12:18:54;;;;;;;20.65;16.90;;;12.30;99.90;;;;;;5075883;28;20176;-66
2021/10/11 12:21:25;;;;;;;22.10;17.73;;;12.50;99.90;;;;;;5075492;28;20216;-66
2021/10/11 12:23:54;;;;;;;23.25;17.42;;;12.50;99.90;;;;;;5075586;28;20192;-66
2021/10/11 12:26:22;;;;;;;26.13;18.20;;;12.50;99.90;;;;;;5075411;28;20656;-66
2021/10/11 12:29:06;;;;;;;23.33;17.80;;;12.60;99.90;;;;;;5075301;28;20200;-65
2021/10/11 12:31:34;;;;;;;23.67;17.90;;;12.70;99.90;;;;;;5075378;28;20593;-65
2021/10/11 12:34:07;;;;;;;32.47;20.87;;;12.80;99.90;;;;;;5075354;28;20644;-65
2021/10/11 12:36:54;;;;;;;33.13;22.45;;;12.80;99.90;;;;;;5075145;28;20618;-65
2021/10/11 12:39:37;;;;;;;25.67;18.20;;;13.00;99.90;;;;;;5075847;28;20246;-66